Terminal Aerodrome Forecast
Issued by NWS

Home | Current Version | Previous Version | Text Only | Print | Product List | Glossary On
Versions: 1 2 3 4 5 6 7 8 9 10 11 12 13 14 15 16 17
709
FTAK31 PAJN 091140
TAFAKT
TAF
PAKT 091140Z 0912/1012 13010KT 4SM -RA BR BKN005 OVC015
     FM091800 VRB06KT P6SM SCT010 SCT040 OVC060
     FM092200 14009KT P6SM SCT040 BKN080
     FM100100 14011G19KT P6SM SCT030 OVC070 WS020/15035KT
     FM100700 16015G25KT 6SM -RA SCT030 OVC050 WS020/15040KT
      AMD LTD TO CLD VIS AND WIND 0912/0915=

USA.gov is the U.S. government's official web portal to all federal, state and local government web resources and services.